Hewitt, Wisconsin
Current Conditions -  °F | °C
As of 11:54 AM on Saturday 20 Dec 2014 (Local Time) from KMFI Reporting Station
Haze Haze  
Wind Chill: 22°   Ceiling: 900
Heat Index: 29°   Visibility: 5mi
Dew Point: 24°   Wind: 7mph
Humidity: 82%   Direction: 160°SSE
Pressure: 30.18"   Gusts: NA
Location:  44.64°N, 90.1°W
Report Text: KMFI 201754Z AUTO 16006KT 5SM HZ OVC009 M02/M04 A3018 RMK AO2 SLP240 T10171044 11017 21039 58007
Loading
Personal Weather Stations






























Interactive Weather Map New forecast layout! Learn more

10-Day Weather Forecast

Advertisements
Track Severe Weather on mobile